Flight Track Log - Related Links

Times and Time Zones

All times are in EDT time to prevent confusion due to time zone crossing. See the AAY800 flight status page for this flight to view local times or setup timezone preferences in your user account.

Time Position Orientation Groundspeed Altitude Reporting Facility
EDT Latitude Longitude Course Direction KTS MPH feet Rate Location/Type
Thu 06:28:54 AM 27.9000 -82.6833 180° South 150 173 700  Level Tampa TRACON
Thu 06:29:30 AM 27.8833 -82.6833 180° South 151 174 1,700 1,625 Climbing Tampa TRACON
Thu 06:30:30 AM 27.8167 -82.6833 180° South 234 269 3,300 1,557 Climbing Tampa TRACON
Thu 06:32:08 AM 27.8297 -82.7558 282° West 226 260 5,800 1,785 Climbing Miami Center
Thu 06:33:08 AM 27.9053 -82.7342 14° North 284 327 8,000 2,380 Climbing Miami Center
Thu 06:34:09 AM 27.9861 -82.7036 18° North 301 346 10,600 1,983 Climbing Miami Center
Thu 06:35:09 AM 28.0772 -82.6697 18° North 335 386 12,000 1,934 Climbing Miami Center
Thu 06:36:10 AM 28.1808 -82.6300 19° North 373 429 14,500 2,311 Climbing Miami Center
Thu 06:37:11 AM 28.2858 -82.6203 North 384 442 16,700 2,182 Climbing Miami Center
Thu 06:38:11 AM 28.3953 -82.6183 North 386 444 18,900 1,884 Climbing Miami Center
Thu 06:39:12 AM 28.5047 -82.6464 347° North 399 459 20,500 1,686 Climbing Miami Center
Thu 06:40:12 AM 28.6214 -82.6719 349° North 408 470 22,300 1,636 Climbing Miami Center
Thu 06:41:13 AM 28.7383 -82.6933 351° North 420 483 23,800 1,820 Climbing Miami Center
Thu 06:42:14 AM 28.8575 -82.7144 351° North 430 495 26,000 1,686 Climbing Miami Center
Thu 06:43:14 AM 28.9742 -82.7353 351° North 425 489 27,200 1,190 Climbing Miami Center
Thu 06:44:15 AM 29.1186 -82.7722 347° North 441 507 28,400 1,041 Climbing Miami Center
Thu 06:45:15 AM 29.2428 -82.8047 347° North 453 521 29,300 1,091 Climbing Miami Center
Thu 06:46:16 AM 29.3700 -82.8419 346° North 469 540 30,600 1,240 Climbing Miami Center
Thu 06:47:16 AM 29.4914 -82.8917 340° North 466 536 31,800 1,140 Climbing Miami Center
Thu 06:48:17 AM 29.6167 -82.9336 344° North 469 540 32,900 893 Climbing Miami Center
Thu 06:49:17 AM 29.7314 -82.9572 350° North 473 544 33,600 496 Climbing Miami Center
Thu 06:50:18 AM 29.8750 -82.9767 353° North 491 565 33,900 197 Climbing Miami Center
Thu 06:51:19 AM 30.0119 -82.9958 353° North 495 570 34,000 397 Climbing Miami Center
Thu 06:52:19 AM 30.1481 -83.0150 353° North 496 571 34,700 694 Climbing Miami Center
Thu 06:53:20 AM 30.2878 -83.0364 352° North 502 578 35,400 926 Climbing Miami Center
Thu 06:54:35 AM 30.4878 -83.0636 353° North 499 574 36,800 1,022 Climbing Jacksonville Center
Thu 06:55:35 AM 30.6233 -83.0808 354° North 499 574 37,700 600 Climbing Jacksonville Center
Thu 06:56:35 AM 30.7592 -83.1006 353° North 499 574 38,000 150 Climbing Jacksonville Center
Thu 06:57:35 AM 30.8864 -83.1200 353° North 485 558 38,000  Level Jacksonville Center
Thu 06:58:35 AM 31.0200 -83.1375 354° North 480 552 38,000  Level Jacksonville Center
Thu 06:59:35 AM 31.1578 -83.1425 358° North 485 558 38,000  Level Jacksonville Center
Thu 07:00:35 AM 31.2914 -83.1478 358° North 478 550 38,000  Level Jacksonville Center
Thu 07:02:59 AM 31.6183 -83.1633 358° North 505 581 38,000  Level Atlanta Center
Thu 07:03:59 AM 31.7539 -83.1694 358° North 499 574 38,000  Level Atlanta Center
Thu 07:04:59 AM 31.8792 -83.1756 358° North 494 568 38,000  Level Atlanta Center
Thu 07:05:59 AM 32.0169 -83.1792 359° North 494 568 38,000  Level Atlanta Center
Thu 07:06:59 AM 32.1528 -83.1850 358° North 494 568 38,000  Level Atlanta Center
Thu 07:07:59 AM 32.2906 -83.1936 357° North 494 568 38,000  Level Atlanta Center
Thu 07:08:59 AM 32.4264 -83.1997 358° North 494 568 38,000  Level Atlanta Center
Thu 07:09:59 AM 32.5661 -83.2033 359° North 494 568 38,000  Level Atlanta Center
Thu 07:10:59 AM 32.7019 -83.2119 357° North 494 568 38,000  Level Atlanta Center
Thu 07:11:59 AM 32.8333 -83.2181 358° North 488 562 38,000  Level Atlanta Center
Thu 07:12:59 AM 32.9711 -83.2242 358° North 483 556 38,000  Level Atlanta Center
Thu 07:13:59 AM 33.1217 -83.2328 357° North 489 563 38,000  Level Atlanta Center
Thu 07:14:59 AM 33.2636 -83.2364 359° North 494 568 38,000  Level Atlanta Center
Thu 07:15:59 AM 33.4014 -83.2425 358° North 499 574 38,000  Level Atlanta Center
Thu 07:21:20 AM 34.1682 -83.2748 358° North 486 559 38,000  Level FlightAware ADS-B (KDZJ)
Thu 07:21:55 AM 34.2472 -83.2784 358° North 486 559 38,000  Level FlightAware ADS-B (KDZJ)
Thu 07:22:35 AM 34.3396 -83.2827 358° North 486 559 38,000  Level FlightAware ADS-B (KDZJ)
Thu 07:23:19 AM 34.4413 -83.2874 358° North 495 570 38,000  Level FlightAware ADS-B (KDZJ)
Thu 07:23:57 AM 34.5279 -83.2912 358° North 495 570 38,000  Level FlightAware ADS-B (KDZJ)
Thu 07:24:39 AM 34.6234 -83.2957 358° North 496 571 38,000  Level FlightAware ADS-B (KDZJ)
Thu 07:25:15 AM 34.7074 -83.2995 358° North 496 571 38,000  Level FlightAware ADS-B (KDZJ)
Thu 07:25:59 AM 34.8070 -83.3043 358° North 496 571 38,000  Level FlightAware ADS-B (KDZJ)
Thu 07:26:41 AM 34.9033 -83.3089 358° North 497 572 38,000  Level FlightAware ADS-B (KDZJ)
Thu 07:27:16 AM 34.9855 -83.3126 358° North 498 573 38,000 -486 Level FlightAware ADS-B (KDZJ)
Thu 07:27:55 AM 35.0761 -83.3168 358° North 500 575 37,400 -811 Descending FlightAware ADS-B (KDZJ)
Thu 07:28:30 AM 35.1558 -83.3202 358° North 495 570 37,000 -231 Descending FlightAware ADS-B (KDZJ)
Thu 07:29:39 AM 35.3163 -83.3278 358° North 501 577 37,000  Level FlightAware ADS-B (KDZJ)
Thu 07:30:22 AM 35.4179 -83.3327 358° North 501 577 37,000  Level FlightAware ADS-B (KDZJ)
Thu 07:31:12 AM 35.4847 -83.3375 358° North 506 582 37,000  Level Indianapolis Center
Thu 07:31:59 AM 35.6058 -83.3414 359° North 497 572 37,000  Level Atlanta Center
Thu 07:32:59 AM 35.7456 -83.3481 358° North 497 572 37,000  Level Atlanta Center
Thu 07:33:59 AM 35.8833 -83.3544 358° North 497 572 37,000  Level Atlanta Center
Thu 07:34:59 AM 36.0231 -83.3636 357° North 497 572 37,000  Level Atlanta Center
Thu 07:35:59 AM 36.1650 -83.3700 358° North 497 572 37,000  Level Atlanta Center
Thu 07:37:20 AM 36.3486 -83.3769 358° North 500 575 37,000  Level Indianapolis Center
Thu 07:38:21 AM 36.4897 -83.3842 358° North 501 577 37,000  Level Indianapolis Center
Thu 07:39:23 AM 36.6306 -83.3906 358° North 501 577 37,000  Level Indianapolis Center
Thu 07:40:24 AM 36.7733 -83.3972 358° North 502 578 37,000  Level Indianapolis Center
Thu 07:41:26 AM 36.9161 -83.4044 358° North 505 581 37,000  Level Indianapolis Center
Thu 07:42:27 AM 37.0581 -83.4108 358° North 505 581 37,000  Level Indianapolis Center
Thu 07:43:29 AM 37.1986 -83.4186 357° North 504 580 37,000  Level Indianapolis Center
Thu 07:44:30 AM 37.3375 -83.4258 358° North 501 577 37,000  Level Indianapolis Center
Thu 07:45:32 AM 37.4992 -83.4342 358° North 497 572 37,000  Level Indianapolis Center
Thu 07:46:33 AM 37.6378 -83.4394 358° North 497 572 37,000  Level Indianapolis Center
Thu 07:47:35 AM 37.7761 -83.4478 357° North 497 572 37,000  Level Indianapolis Center
Thu 07:48:37 AM 37.9147 -83.4519 359° North 497 572 37,000  Level Indianapolis Center
Thu 07:49:38 AM 38.0531 -83.4586 358° North 497 572 37,000  Level Indianapolis Center
Thu 07:50:40 AM 38.1908 -83.4661 358° North 496 571 37,000  Level Indianapolis Center
Thu 07:51:42 AM 38.3286 -83.4722 358° North 496 571 37,000  Level Indianapolis Center
Thu 07:52:43 AM 38.4664 -83.4814 357° North 496 571 37,000 -439 Level Indianapolis Center
Thu 07:53:45 AM 38.6272 -83.4881 358° North 496 571 36,100 -823 Descending Indianapolis Center
Thu 07:54:47 AM 38.7453 -83.4956 357° North 494 568 35,300 -532 Descending Indianapolis Center
Thu 07:55:49 AM 38.9078 -83.5033 358° North 490 564 35,000 -146 Descending Indianapolis Center
Thu 07:56:50 AM 39.0433 -83.5108 358° North 487 560 35,000  Level Indianapolis Center
Thu 07:57:52 AM 39.1769 -83.5178 358° North 486 559 35,000 -439 Level Indianapolis Center
Thu 07:58:53 AM 39.3117 -83.5231 358° North 486 559 34,100 -878 Descending Indianapolis Center
Thu 07:59:55 AM 39.4458 -83.5308 357° North 486 559 33,200 -919 Descending Indianapolis Center
Thu 08:00:57 AM 39.5772 -83.5378 358° North 478 550 32,200 -976 Descending Indianapolis Center
Thu 08:01:58 AM 39.7061 -83.5453 357° North 469 540 31,200 -1,073 Descending Indianapolis Center
Thu 08:03:00 AM 39.8503 -83.5519 358° North 463 533 30,000 -1,548 Descending Indianapolis Center
Thu 08:04:02 AM 39.9664 -83.5594 357° North 455 524 28,000 -1,902 Descending Indianapolis Center
Thu 08:05:03 AM 40.0825 -83.5650 358° North 427 491 26,100 -2,293 Descending Indianapolis Center
Thu 08:06:05 AM 40.2158 -83.5717 358° North 405 466 23,300 -2,274 Descending Indianapolis Center
Thu 08:07:07 AM 40.3250 -83.5775 358° North 398 458 21,400 -1,597 Descending Indianapolis Center
Thu 08:08:09 AM 40.4297 -83.5839 357° North 383 441 20,000 -683 Descending Indianapolis Center
Thu 08:09:10 AM 40.5347 -83.5889 358° North 381 438 20,000  Level Indianapolis Center
Thu 08:10:12 AM 40.6394 -83.5942 358° North 381 438 20,000  Level Indianapolis Center
Thu 08:11:01 AM 40.7228 -83.5997 357° North 379 436 20,000 -1,514 Level Cleveland Center
Thu 08:12:03 AM 40.8311 -83.6056 358° North 386 444 17,200 -3,194 Descending Cleveland Center
Thu 08:13:05 AM 40.9414 -83.6108 358° North 395 455 13,400 -2,710 Descending Cleveland Center
Thu 08:14:07 AM 41.0675 -83.6106 360° North 382 440 11,600 -1,645 Descending Cleveland Center
Thu 08:15:09 AM 41.1497 -83.5958 North 336 387 10,000 -1,790 Descending Cleveland Center
Thu 08:16:11 AM 41.2350 -83.5764 10° North 314 361 7,900 -2,226 Descending Cleveland Center
Thu 08:17:13 AM 41.3319 -83.5783 359° North 298 343 5,400 -1,887 Descending Cleveland Center
Thu 08:18:15 AM 41.4122 -83.5678 North 293 337 4,000 -1,171 Descending Cleveland Center
Thu 08:19:16 AM 41.4878 -83.5592 North 280 322 3,000 -488 Descending Cleveland Center
Thu 08:20:18 AM 41.5517 -83.5503 North 242 278 3,000  Level Cleveland Center
Thu 08:21:20 AM 41.6092 -83.5411 North 214 246 3,000  Level Cleveland Center
Thu 08:22:22 AM 41.6528 -83.5825 325° Northwest 203 234 3,000  Level Cleveland Center
Thu 08:23:24 AM 41.6381 -83.6506 254° West 166 191 3,000 -339 Level Cleveland Center
Thu 08:24:26 AM 41.6236 -83.6969 247° West 150 173 2,300 -629 Descending Cleveland Center
Thu 08:25:28 AM 41.6086 -83.7456 248° West 140 161 1,700 -581 Descending Cleveland Center

Login

Don't have an account? Register now (free) for customized features, flight alerts, and more!